Pittsburgh, PA (15237)

11:20 AM EST on December 29, 2014 (GMT -0500)
McCandless | Change Station
CLOSE
Current Station
Personal Weather Station
Location: Pittsburgh, PA
Elevation: 988 ft
Nearby Weather Stations

Elev 988 ft 40.56 °N, 80.06 °W | Updated 1 minute ago

Partly Cloudy
Partly Cloudy
33.4 °F
Feels Like 33 °F
N
0.0
Wind Variable Wind from West
Gusts 0.0 mph

Today
High -- | Low -- °F
--% Chance of Precip.
Yesterday
High -- | Low -- °F
Precip. -- in
7:43 AM 5:01 PM
First Quarter, 60% visible
Pressure 30.29 in
Visibility 10.0 miles
Clouds Scattered Clouds 2500 ft
Mostly Cloudy 25000 ft
Windchill 33 °F
Dew Point 27 °F
Humidity 76%
Rainfall 0.00 in
Snow Depth Not available.
UV 1 out of 12
Pollen .10 out of 12
Air Quality Not available.
Flu Activity Not available.
METAR KPIT 291551Z 33004KT 10SM SCT025 BKN250 02/M04 A3023 RMK AO2 SLP257 T00171044

More Conditions Fewer Conditions

Pressure 30.29 in
Visibility 10.0 miles
Clouds Scattered Clouds 2500 ft
Mostly Cloudy 25000 ft
Windchill 33 °F
Dew Point 27 °F
Humidity 76%
Rainfall 0.00 in
Snow Depth Not available.
UV 1 out of 12
Pollen .10 out of 12
Air Quality Not available.
Flu Activity Not available.
METAR KPIT 291551Z 33004KT 10SM SCT025 BKN250 02/M04 A3023 RMK AO2 SLP257 T00171044

More Conditions Fewer Conditions

10-Day Weather Forecast

Almanac

Astronomy

Dec. 29, 2014 Rise Set
Actual Time
Civil Twilight
Nautical Twilight
Astronomical Twilight
Moon
Length of Visible Light
Length of Day
Tomorrow will be .
, % of the Moon is Illuminated

Today's Extremes

State Highs State Lows

Community

WunderPhotos

Upload Photos

1,781,631 photos uploaded!

WunderBlogs® & News

Nearby

Air Quality

  Air Quality AQ Index Pollutant
Not available.

Snow Depth

Station Depth Elevation

Earthquake Activity

City Distance Mag. Time & Date
Minimum magnitude displayed is 2.5.

Coastal Water Temperatures

Place Temperature

Nearby Weather Stations